sensor_id;sensor_type;location;lat;lon;timestamp;noise_LAeq;noise_LA_min;noise_LA_max;noise_LA01;noise_LA95
45964;Laerm;31671;48.092;11.842;2023-04-24T00:00:47;30.84;27.48;51.80;;
45964;Laerm;31671;48.092;11.842;2023-04-24T00:03:12;32.79;27.53;61.44;;
45964;Laerm;31671;48.092;11.842;2023-04-24T00:05:38;31.07;26.89;50.57;;
45964;Laerm;31671;48.092;11.842;2023-04-24T00:08:04;29.84;27.53;47.07;;
45964;Laerm;31671;48.092;11.842;2023-04-24T00:10:29;29.43;27.24;45.81;;
45964;Laerm;31671;48.092;11.842;2023-04-24T00:12:55;29.47;27.33;41.88;;
45964;Laerm;31671;48.092;11.842;2023-04-24T00:15:21;31.07;27.34;47.80;;
45964;Laerm;31671;48.092;11.842;2023-04-24T00:17:46;32.41;27.38;51.92;;
45964;Laerm;31671;48.092;11.842;2023-04-24T00:20:12;30.30;27.50;45.57;;
45964;Laerm;31671;48.092;11.842;2023-04-24T00:22:38;30.34;27.49;45.53;;
45964;Laerm;31671;48.092;11.842;2023-04-24T00:25:04;29.25;27.20;45.01;;
45964;Laerm;31671;48.092;11.842;2023-04-24T00:27:29;29.15;27.63;38.94;;
45964;Laerm;31671;48.092;11.842;2023-04-24T00:29:55;29.23;27.39;45.53;;
45964;Laerm;31671;48.092;11.842;2023-04-24T00:32:21;29.04;27.46;40.34;;
45964;Laerm;31671;48.092;11.842;2023-04-24T00:34:47;29.23;27.55;34.31;;
45964;Laerm;31671;48.092;11.842;2023-04-24T00:37:13;29.36;27.66;36.64;;
45964;Laerm;31671;48.092;11.842;2023-04-24T00:39:39;29.15;27.31;35.37;;
45964;Laerm;31671;48.092;11.842;2023-04-24T00:42:04;29.30;27.49;35.94;;
45964;Laerm;31671;48.092;11.842;2023-04-24T00:44:30;29.28;27.71;33.86;;
45964;Laerm;31671;48.092;11.842;2023-04-24T00:46:56;29.27;27.55;33.06;;
45964;Laerm;31671;48.092;11.842;2023-04-24T00:49:23;29.43;27.41;32.70;;
45964;Laerm;31671;48.092;11.842;2023-04-24T00:51:49;29.35;27.40;33.56;;
45964;Laerm;31671;48.092;11.842;2023-04-24T00:54:15;29.47;27.59;37.13;;
45964;Laerm;31671;48.092;11.842;2023-04-24T00:56:41;29.39;27.70;36.98;;
45964;Laerm;31671;48.092;11.842;2023-04-24T00:59:08;29.38;27.76;34.12;;
45964;Laerm;31671;48.092;11.842;2023-04-24T01:01:34;29.28;27.64;39.88;;
45964;Laerm;31671;48.092;11.842;2023-04-24T01:04:00;29.68;27.44;50.18;;
45964;Laerm;31671;48.092;11.842;2023-04-24T01:06:29;29.46;27.47;48.43;;
45964;Laerm;31671;48.092;11.842;2023-04-24T01:08:55;29.24;27.48;33.00;;
45964;Laerm;31671;48.092;11.842;2023-04-24T01:11:21;29.35;27.61;37.61;;
45964;Laerm;31671;48.092;11.842;2023-04-24T01:13:48;29.30;27.58;33.92;;
45964;Laerm;31671;48.092;11.842;2023-04-24T01:16:14;29.33;27.60;32.93;;
45964;Laerm;31671;48.092;11.842;2023-04-24T01:18:40;29.30;27.76;33.52;;
45964;Laerm;31671;48.092;11.842;2023-04-24T01:21:05;29.24;27.39;32.31;;
45964;Laerm;31671;48.092;11.842;2023-04-24T01:23:32;29.61;27.79;33.25;;
45964;Laerm;31671;48.092;11.842;2023-04-24T01:25:57;29.40;27.70;33.31;;
45964;Laerm;31671;48.092;11.842;2023-04-24T01:28:25;29.35;27.65;34.41;;
45964;Laerm;31671;48.092;11.842;2023-04-24T01:30:50;29.27;27.59;35.34;;
45964;Laerm;31671;48.092;11.842;2023-04-24T01:33:16;29.33;27.75;32.69;;
45964;Laerm;31671;48.092;11.842;2023-04-24T01:35:42;29.27;27.29;34.31;;
45964;Laerm;31671;48.092;11.842;2023-04-24T01:38:08;29.26;27.49;32.98;;
45964;Laerm;31671;48.092;11.842;2023-04-24T01:40:35;28.99;27.39;38.92;;
45964;Laerm;31671;48.092;11.842;2023-04-24T01:43:01;29.73;27.28;45.25;;
45964;Laerm;31671;48.092;11.842;2023-04-24T01:45:29;29.08;27.66;45.49;;
45964;Laerm;31671;48.092;11.842;2023-04-24T01:47:56;28.94;27.51;40.42;;
45964;Laerm;31671;48.092;11.842;2023-04-24T01:50:23;29.27;27.45;48.01;;
45964;Laerm;31671;48.092;11.842;2023-04-24T01:52:48;28.88;27.46;45.23;;
45964;Laerm;31671;48.092;11.842;2023-04-24T01:55:15;33.47;27.47;58.65;;
45964;Laerm;31671;48.092;11.842;2023-04-24T01:57:40;35.12;27.51;60.06;;
45964;Laerm;31671;48.092;11.842;2023-04-24T02:00:06;34.49;27.22;59.44;;
45964;Laerm;31671;48.092;11.842;2023-04-24T02:02:39;32.25;27.38;58.04;;
45964;Laerm;31671;48.092;11.842;2023-04-24T02:05:07;28.84;27.44;32.86;;
45964;Laerm;31671;48.092;11.842;2023-04-24T02:07:35;28.83;27.20;35.08;;
45964;Laerm;31671;48.092;11.842;2023-04-24T02:10:01;28.84;27.51;31.33;;
45964;Laerm;31671;48.092;11.842;2023-04-24T02:12:27;29.00;27.43;39.83;;
45964;Laerm;31671;48.092;11.842;2023-04-24T02:14:52;28.83;27.45;39.32;;
45964;Laerm;31671;48.092;11.842;2023-04-24T02:17:18;28.75;27.45;30.61;;
45964;Laerm;31671;48.092;11.842;2023-04-24T02:19:44;29.07;27.39;49.74;;
45964;Laerm;31671;48.092;11.842;2023-04-24T02:22:10;28.81;27.26;39.78;;
45964;Laerm;31671;48.092;11.842;2023-04-24T02:24:36;29.05;27.36;44.72;;
45964;Laerm;31671;48.092;11.842;2023-04-24T02:27:02;28.92;27.48;37.91;;
45964;Laerm;31671;48.092;11.842;2023-04-24T02:29:27;28.83;27.34;35.25;;
45964;Laerm;31671;48.092;11.842;2023-04-24T02:31:53;28.73;27.30;33.60;;
45964;Laerm;31671;48.092;11.842;2023-04-24T02:34:19;29.00;27.45;42.84;;
45964;Laerm;31671;48.092;11.842;2023-04-24T02:36:44;29.64;27.51;50.90;;
45964;Laerm;31671;48.092;11.842;2023-04-24T02:39:10;28.78;27.36;29.95;;
45964;Laerm;31671;48.092;11.842;2023-04-24T02:41:37;28.87;27.25;37.58;;
45964;Laerm;31671;48.092;11.842;2023-04-24T02:44:03;28.85;27.57;30.90;;
45964;Laerm;31671;48.092;11.842;2023-04-24T02:46:29;28.92;26.91;41.40;;
45964;Laerm;31671;48.092;11.842;2023-04-24T02:48:54;28.83;27.39;36.38;;
45964;Laerm;31671;48.092;11.842;2023-04-24T02:51:20;28.72;27.10;32.30;;
45964;Laerm;31671;48.092;11.842;2023-04-24T02:53:46;28.80;27.24;33.16;;
45964;Laerm;31671;48.092;11.842;2023-04-24T02:56:11;29.12;27.49;44.90;;
45964;Laerm;31671;48.092;11.842;2023-04-24T02:58:37;28.96;27.60;40.55;;
45964;Laerm;31671;48.092;11.842;2023-04-24T03:01:03;28.81;27.32;38.31;;
45964;Laerm;31671;48.092;11.842;2023-04-24T03:03:29;28.88;27.28;30.61;;
45964;Laerm;31671;48.092;11.842;2023-04-24T03:05:54;28.84;27.60;33.60;;
45964;Laerm;31671;48.092;11.842;2023-04-24T03:08:20;28.96;27.35;32.56;;
45964;Laerm;31671;48.092;11.842;2023-04-24T03:10:46;28.91;27.53;33.71;;
45964;Laerm;31671;48.092;11.842;2023-04-24T03:13:11;28.96;27.26;47.25;;
45964;Laerm;31671;48.092;11.842;2023-04-24T03:15:37;28.94;27.46;34.41;;
45964;Laerm;31671;48.092;11.842;2023-04-24T03:18:03;29.07;27.62;40.52;;
45964;Laerm;31671;48.092;11.842;2023-04-24T03:20:29;30.99;27.47;59.09;;
45964;Laerm;31671;48.092;11.842;2023-04-24T03:22:56;34.30;27.56;65.46;;
45964;Laerm;31671;48.092;11.842;2023-04-24T03:25:22;29.98;27.55;51.87;;
45964;Laerm;31671;48.092;11.842;2023-04-24T03:27:49;29.68;27.68;46.34;;
45964;Laerm;31671;48.092;11.842;2023-04-24T03:30:47;28.99;27.54;35.23;;
45964;Laerm;31671;48.092;11.842;2023-04-24T03:33:13;29.12;27.38;47.92;;
45964;Laerm;31671;48.092;11.842;2023-04-24T03:35:46;29.58;27.61;46.81;;
45964;Laerm;31671;48.092;11.842;2023-04-24T03:38:12;29.12;27.66;33.20;;
45964;Laerm;31671;48.092;11.842;2023-04-24T03:40:52;30.67;27.63;53.43;;
45964;Laerm;31671;48.092;11.842;2023-04-24T03:43:34;29.54;27.65;37.17;;
45964;Laerm;31671;48.092;11.842;2023-04-24T03:46:01;29.53;27.61;32.88;;
45964;Laerm;31671;48.092;11.842;2023-04-24T03:48:27;29.64;27.69;42.94;;
45964;Laerm;31671;48.092;11.842;2023-04-24T03:50:53;29.41;27.65;42.50;;
45964;Laerm;31671;48.092;11.842;2023-04-24T03:53:19;29.60;27.44;41.28;;
45964;Laerm;31671;48.092;11.842;2023-04-24T03:55:45;29.27;27.51;38.29;;
45964;Laerm;31671;48.092;11.842;2023-04-24T03:58:11;29.52;27.60;40.87;;
45964;Laerm;31671;48.092;11.842;2023-04-24T04:00:37;29.23;27.57;32.79;;
45964;Laerm;31671;48.092;11.842;2023-04-24T04:03:22;29.29;27.76;42.30;;
45964;Laerm;31671;48.092;11.842;2023-04-24T04:05:48;29.33;27.58;35.83;;
45964;Laerm;31671;48.092;11.842;2023-04-24T04:08:14;29.19;27.62;42.83;;
45964;Laerm;31671;48.092;11.842;2023-04-24T04:10:40;29.02;27.44;42.39;;
45964;Laerm;31671;48.092;11.842;2023-04-24T04:13:05;31.54;27.54;45.08;;
45964;Laerm;31671;48.092;11.842;2023-04-24T04:15:31;29.52;27.56;36.53;;
45964;Laerm;31671;48.092;11.842;2023-04-24T04:17:57;29.60;27.64;39.32;;
45964;Laerm;31671;48.092;11.842;2023-04-24T04:20:23;29.58;27.59;39.84;;
45964;Laerm;31671;48.092;11.842;2023-04-24T04:22:48;29.18;27.63;33.02;;
45964;Laerm;31671;48.092;11.842;2023-04-24T04:25:20;29.24;27.51;39.84;;
45964;Laerm;31671;48.092;11.842;2023-04-24T04:27:46;29.08;27.34;34.91;;
45964;Laerm;31671;48.092;11.842;2023-04-24T04:30:12;30.24;27.71;59.14;;
45964;Laerm;31671;48.092;11.842;2023-04-24T04:32:46;29.11;27.39;33.79;;
45964;Laerm;31671;48.092;11.842;2023-04-24T04:35:12;29.25;27.72;33.54;;
45964;Laerm;31671;48.092;11.842;2023-04-24T04:37:38;30.47;27.62;44.19;;
45964;Laerm;31671;48.092;11.842;2023-04-24T04:40:42;30.68;27.49;44.46;;
45964;Laerm;31671;48.092;11.842;2023-04-24T04:43:08;29.13;27.37;38.48;;
45964;Laerm;31671;48.092;11.842;2023-04-24T04:45:41;28.92;27.55;31.56;;
45964;Laerm;31671;48.092;11.842;2023-04-24T04:48:33;29.12;27.53;38.63;;
45964;Laerm;31671;48.092;11.842;2023-04-24T04:51:00;29.20;27.74;33.58;;
45964;Laerm;31671;48.092;11.842;2023-04-24T04:53:27;29.82;27.40;47.51;;
45964;Laerm;31671;48.092;11.842;2023-04-24T04:55:52;29.02;27.65;33.68;;
45964;Laerm;31671;48.092;11.842;2023-04-24T04:58:20;29.13;27.65;35.80;;
45964;Laerm;31671;48.092;11.842;2023-04-24T05:00:49;32.16;27.68;58.20;;
45964;Laerm;31671;48.092;11.842;2023-04-24T05:03:25;29.12;27.67;32.37;;
45964;Laerm;31671;48.092;11.842;2023-04-24T05:05:59;29.11;27.40;36.92;;
45964;Laerm;31671;48.092;11.842;2023-04-24T05:08:25;36.63;27.49;55.51;;
45964;Laerm;31671;48.092;11.842;2023-04-24T05:10:51;29.21;27.52;37.73;;
45964;Laerm;31671;48.092;11.842;2023-04-24T05:13:16;29.06;27.59;32.49;;
45964;Laerm;31671;48.092;11.842;2023-04-24T05:15:42;29.02;27.50;31.51;;
45964;Laerm;31671;48.092;11.842;2023-04-24T05:18:08;33.09;27.61;61.23;;
45964;Laerm;31671;48.092;11.842;2023-04-24T05:20:34;29.15;27.65;37.34;;
45964;Laerm;31671;48.092;11.842;2023-04-24T05:22:59;29.47;27.52;45.11;;
45964;Laerm;31671;48.092;11.842;2023-04-24T05:25:26;29.33;27.62;43.83;;
45964;Laerm;31671;48.092;11.842;2023-04-24T05:27:59;29.83;27.74;44.36;;
45964;Laerm;31671;48.092;11.842;2023-04-24T05:30:25;29.22;27.44;37.14;;
45964;Laerm;31671;48.092;11.842;2023-04-24T05:32:50;29.34;27.63;38.29;;
45964;Laerm;31671;48.092;11.842;2023-04-24T05:35:16;29.66;27.46;47.10;;
45964;Laerm;31671;48.092;11.842;2023-04-24T05:37:42;29.24;27.67;33.07;;
45964;Laerm;31671;48.092;11.842;2023-04-24T05:40:08;29.11;27.69;34.21;;
45964;Laerm;31671;48.092;11.842;2023-04-24T05:42:34;29.40;27.43;39.88;;
45964;Laerm;31671;48.092;11.842;2023-04-24T05:45:00;30.34;27.42;52.15;;
45964;Laerm;31671;48.092;11.842;2023-04-24T05:47:26;29.57;27.49;49.40;;
45964;Laerm;31671;48.092;11.842;2023-04-24T05:49:52;29.58;27.66;41.98;;
45964;Laerm;31671;48.092;11.842;2023-04-24T05:52:20;29.26;27.53;35.63;;
45964;Laerm;31671;48.092;11.842;2023-04-24T05:54:48;29.13;27.47;35.44;;
45964;Laerm;31671;48.092;11.842;2023-04-24T05:57:18;29.71;27.50;48.17;;
45964;Laerm;31671;48.092;11.842;2023-04-24T05:59:51;29.44;27.61;36.64;;
45964;Laerm;31671;48.092;11.842;2023-04-24T06:02:18;29.23;27.40;36.05;;
45964;Laerm;31671;48.092;11.842;2023-04-24T06:04:44;29.57;27.65;41.97;;
45964;Laerm;31671;48.092;11.842;2023-04-24T06:07:10;29.44;27.71;40.90;;
45964;Laerm;31671;48.092;11.842;2023-04-24T06:09:37;29.49;27.76;39.60;;
45964;Laerm;31671;48.092;11.842;2023-04-24T06:12:02;29.81;27.95;43.31;;
45964;Laerm;31671;48.092;11.842;2023-04-24T06:14:39;29.75;27.60;38.66;;
45964;Laerm;31671;48.092;11.842;2023-04-24T06:17:17;29.79;27.73;48.81;;
45964;Laerm;31671;48.092;11.842;2023-04-24T06:19:44;31.59;27.46;60.24;;
45964;Laerm;31671;48.092;11.842;2023-04-24T06:22:10;30.33;27.84;40.81;;
45964;Laerm;31671;48.092;11.842;2023-04-24T06:24:36;30.71;27.73;50.09;;
45964;Laerm;31671;48.092;11.842;2023-04-24T06:27:01;29.76;27.87;41.02;;
45964;Laerm;31671;48.092;11.842;2023-04-24T06:29:27;30.97;27.79;50.71;;
45964;Laerm;31671;48.092;11.842;2023-04-24T06:31:53;30.50;27.96;43.03;;
45964;Laerm;31671;48.092;11.842;2023-04-24T06:34:19;29.51;28.10;39.33;;
45964;Laerm;31671;48.092;11.842;2023-04-24T06:36:46;30.29;27.84;36.70;;
45964;Laerm;31671;48.092;11.842;2023-04-24T06:39:11;29.32;27.60;40.04;;
45964;Laerm;31671;48.092;11.842;2023-04-24T06:41:37;29.54;27.90;40.80;;
45964;Laerm;31671;48.092;11.842;2023-04-24T06:44:03;31.37;27.83;52.34;;
45964;Laerm;31671;48.092;11.842;2023-04-24T06:46:28;29.45;27.71;39.03;;
45964;Laerm;31671;48.092;11.842;2023-04-24T06:48:55;30.96;27.64;55.38;;
45964;Laerm;31671;48.092;11.842;2023-04-24T06:51:22;29.69;27.76;48.55;;
45964;Laerm;31671;48.092;11.842;2023-04-24T06:53:47;29.47;27.77;39.00;;
45964;Laerm;31671;48.092;11.842;2023-04-24T06:56:13;29.45;27.88;34.56;;
45964;Laerm;31671;48.092;11.842;2023-04-24T06:58:39;30.76;27.81;55.13;;
45964;Laerm;31671;48.092;11.842;2023-04-24T07:01:05;29.92;27.74;39.74;;
45964;Laerm;31671;48.092;11.842;2023-04-24T07:03:30;29.42;27.91;40.22;;
45964;Laerm;31671;48.092;11.842;2023-04-24T07:05:56;29.88;27.96;41.22;;
45964;Laerm;31671;48.092;11.842;2023-04-24T07:08:22;31.64;27.81;51.91;;
45964;Laerm;31671;48.092;11.842;2023-04-24T07:10:48;29.58;27.61;45.06;;
45964;Laerm;31671;48.092;11.842;2023-04-24T07:13:13;30.11;27.66;43.80;;
45964;Laerm;31671;48.092;11.842;2023-04-24T07:15:39;30.53;28.03;49.91;;
45964;Laerm;31671;48.092;11.842;2023-04-24T07:18:05;29.35;27.38;33.58;;
45964;Laerm;31671;48.092;11.842;2023-04-24T07:20:31;29.70;27.91;44.13;;
45964;Laerm;31671;48.092;11.842;2023-04-24T07:22:56;32.14;27.95;52.11;;
45964;Laerm;31671;48.092;11.842;2023-04-24T07:25:22;30.01;27.84;46.82;;
45964;Laerm;31671;48.092;11.842;2023-04-24T07:27:48;35.12;27.89;61.97;;
45964;Laerm;31671;48.092;11.842;2023-04-24T07:30:13;33.74;27.89;64.72;;
45964;Laerm;31671;48.092;11.842;2023-04-24T07:32:39;32.20;28.04;56.80;;
45964;Laerm;31671;48.092;11.842;2023-04-24T07:35:05;29.99;27.87;36.67;;
45964;Laerm;31671;48.092;11.842;2023-04-24T07:37:31;32.59;27.81;57.48;;
45964;Laerm;31671;48.092;11.842;2023-04-24T07:39:56;30.32;27.94;46.65;;
45964;Laerm;31671;48.092;11.842;2023-04-24T07:42:22;29.99;28.29;39.76;;
45964;Laerm;31671;48.092;11.842;2023-04-24T07:44:48;30.07;28.00;46.16;;
45964;Laerm;31671;48.092;11.842;2023-04-24T07:47:13;31.89;28.32;53.27;;
45964;Laerm;31671;48.092;11.842;2023-04-24T07:49:39;29.92;28.25;45.24;;
45964;Laerm;31671;48.092;11.842;2023-04-24T07:52:06;35.45;28.50;55.64;;
45964;Laerm;31671;48.092;11.842;2023-04-24T07:54:31;36.66;28.27;60.61;;
45964;Laerm;31671;48.092;11.842;2023-04-24T07:56:57;33.59;28.25;54.52;;
45964;Laerm;31671;48.092;11.842;2023-04-24T07:59:23;31.86;28.44;59.85;;
45964;Laerm;31671;48.092;11.842;2023-04-24T08:01:49;32.79;28.49;53.64;;
45964;Laerm;31671;48.092;11.842;2023-04-24T08:04:14;33.60;28.28;52.87;;
45964;Laerm;31671;48.092;11.842;2023-04-24T08:06:40;35.16;28.67;57.93;;
45964;Laerm;31671;48.092;11.842;2023-04-24T08:09:06;32.99;28.13;53.31;;
45964;Laerm;31671;48.092;11.842;2023-04-24T08:11:32;31.73;28.44;52.22;;
45964;Laerm;31671;48.092;11.842;2023-04-24T08:13:58;29.98;28.35;42.79;;
45964;Laerm;31671;48.092;11.842;2023-04-24T08:16:23;35.97;28.30;65.20;;
45964;Laerm;31671;48.092;11.842;2023-04-24T08:18:49;33.42;28.38;59.10;;
45964;Laerm;31671;48.092;11.842;2023-04-24T08:21:15;30.50;28.45;49.20;;
45964;Laerm;31671;48.092;11.842;2023-04-24T08:23:41;31.89;28.36;55.11;;
45964;Laerm;31671;48.092;11.842;2023-04-24T08:26:06;39.78;28.26;64.79;;
45964;Laerm;31671;48.092;11.842;2023-04-24T08:28:32;35.35;28.22;60.59;;
45964;Laerm;31671;48.092;11.842;2023-04-24T08:30:58;32.65;28.41;55.57;;
45964;Laerm;31671;48.092;11.842;2023-04-24T08:33:24;32.63;28.21;55.49;;
45964;Laerm;31671;48.092;11.842;2023-04-24T08:35:49;29.91;28.19;44.51;;
45964;Laerm;31671;48.092;11.842;2023-04-24T08:38:15;29.72;28.30;42.71;;
45964;Laerm;31671;48.092;11.842;2023-04-24T08:40:41;38.22;28.17;60.93;;
45964;Laerm;31671;48.092;11.842;2023-04-24T08:43:07;40.67;28.20;65.36;;
45964;Laerm;31671;48.092;11.842;2023-04-24T08:45:33;30.00;28.11;43.86;;
45964;Laerm;31671;48.092;11.842;2023-04-24T08:47:59;30.06;28.12;48.40;;
45964;Laerm;31671;48.092;11.842;2023-04-24T08:50:25;30.55;28.36;56.43;;
45964;Laerm;31671;48.092;11.842;2023-04-24T08:52:51;31.21;28.19;57.65;;
45964;Laerm;31671;48.092;11.842;2023-04-24T08:55:17;31.01;28.28;48.41;;
45964;Laerm;31671;48.092;11.842;2023-04-24T08:57:44;30.52;27.98;46.07;;
45964;Laerm;31671;48.092;11.842;2023-04-24T09:00:10;35.25;28.26;59.22;;
45964;Laerm;31671;48.092;11.842;2023-04-24T09:02:36;30.52;28.00;47.04;;
45964;Laerm;31671;48.092;11.842;2023-04-24T09:05:04;31.09;28.31;51.79;;
45964;Laerm;31671;48.092;11.842;2023-04-24T09:07:30;33.40;28.19;58.07;;
45964;Laerm;31671;48.092;11.842;2023-04-24T09:10:01;30.86;28.06;51.25;;
45964;Laerm;31671;48.092;11.842;2023-04-24T09:12:27;31.05;28.09;54.41;;
45964;Laerm;31671;48.092;11.842;2023-04-24T09:14:52;29.77;28.20;47.17;;
45964;Laerm;31671;48.092;11.842;2023-04-24T09:17:19;29.76;28.04;49.46;;
45964;Laerm;31671;48.092;11.842;2023-04-24T09:19:44;31.05;28.35;50.63;;
45964;Laerm;31671;48.092;11.842;2023-04-24T09:22:10;32.84;28.24;53.51;;
45964;Laerm;31671;48.092;11.842;2023-04-24T09:24:36;30.59;28.15;47.25;;
45964;Laerm;31671;48.092;11.842;2023-04-24T09:27:02;30.79;28.30;50.19;;
45964;Laerm;31671;48.092;11.842;2023-04-24T09:29:28;30.38;28.39;52.42;;
45964;Laerm;31671;48.092;11.842;2023-04-24T09:31:53;30.70;28.34;50.77;;
45964;Laerm;31671;48.092;11.842;2023-04-24T09:34:22;29.79;28.42;41.72;;
45964;Laerm;31671;48.092;11.842;2023-04-24T09:36:48;29.70;28.34;34.34;;
45964;Laerm;31671;48.092;11.842;2023-04-24T09:39:15;29.67;28.26;37.47;;
45964;Laerm;31671;48.092;11.842;2023-04-24T09:41:47;29.86;27.96;43.01;;
45964;Laerm;31671;48.092;11.842;2023-04-24T09:44:15;29.97;28.54;43.85;;
45964;Laerm;31671;48.092;11.842;2023-04-24T09:46:41;31.75;28.47;53.17;;
45964;Laerm;31671;48.092;11.842;2023-04-24T09:49:12;31.63;28.58;52.50;;
45964;Laerm;31671;48.092;11.842;2023-04-24T09:51:38;30.57;28.54;39.84;;
45964;Laerm;31671;48.092;11.842;2023-04-24T09:54:05;30.38;28.84;37.39;;
45964;Laerm;31671;48.092;11.842;2023-04-24T09:56:36;30.68;29.02;44.85;;
45964;Laerm;31671;48.092;11.842;2023-04-24T09:59:05;38.92;29.26;58.58;;
45964;Laerm;31671;48.092;11.842;2023-04-24T10:01:31;31.04;29.37;45.32;;
45964;Laerm;31671;48.092;11.842;2023-04-24T10:03:57;31.16;29.51;45.10;;
45964;Laerm;31671;48.092;11.842;2023-04-24T10:06:22;38.76;29.69;59.07;;
45964;Laerm;31671;48.092;11.842;2023-04-24T10:08:49;32.48;29.50;50.53;;
45964;Laerm;31671;48.092;11.842;2023-04-24T10:11:14;41.38;29.41;60.32;;
45964;Laerm;31671;48.092;11.842;2023-04-24T10:13:40;35.50;29.23;60.25;;
45964;Laerm;31671;48.092;11.842;2023-04-24T10:16:06;34.87;29.48;57.83;;
45964;Laerm;31671;48.092;11.842;2023-04-24T10:18:32;32.61;29.49;49.76;;
45964;Laerm;31671;48.092;11.842;2023-04-24T10:20:59;33.38;29.23;61.70;;
45964;Laerm;31671;48.092;11.842;2023-04-24T10:23:25;37.48;29.55;66.44;;
45964;Laerm;31671;48.092;11.842;2023-04-24T10:25:51;32.52;29.60;53.97;;
45964;Laerm;31671;48.092;11.842;2023-04-24T10:28:18;31.15;29.63;49.69;;
45964;Laerm;31671;48.092;11.842;2023-04-24T10:30:44;30.72;29.39;33.26;;
45964;Laerm;31671;48.092;11.842;2023-04-24T10:33:10;30.80;29.44;37.67;;
45964;Laerm;31671;48.092;11.842;2023-04-24T10:35:44;30.90;29.27;43.72;;
45964;Laerm;31671;48.092;11.842;2023-04-24T10:38:12;30.91;29.41;38.06;;
45964;Laerm;31671;48.092;11.842;2023-04-24T10:40:38;30.85;29.43;39.76;;
45964;Laerm;31671;48.092;11.842;2023-04-24T10:43:04;31.07;29.26;47.99;;
45964;Laerm;31671;48.092;11.842;2023-04-24T10:45:31;31.79;29.54;49.01;;
45964;Laerm;31671;48.092;11.842;2023-04-24T10:50:29;35.54;29.45;54.62;;
45964;Laerm;31671;48.092;11.842;2023-04-24T10:53:12;30.96;29.22;46.96;;
45964;Laerm;31671;48.092;11.842;2023-04-24T10:55:45;30.80;29.47;35.42;;
45964;Laerm;31671;48.092;11.842;2023-04-24T10:58:11;30.72;29.28;41.59;;
45964;Laerm;31671;48.092;11.842;2023-04-24T11:00:37;30.88;29.43;42.50;;
45964;Laerm;31671;48.092;11.842;2023-04-24T11:05:51;31.65;29.26;48.47;;
45964;Laerm;31671;48.092;11.842;2023-04-24T11:08:27;30.75;29.27;45.87;;
45964;Laerm;31671;48.092;11.842;2023-04-24T11:13:22;30.55;29.04;35.72;;
45964;Laerm;31671;48.092;11.842;2023-04-24T11:18:38;41.61;28.13;66.58;;
45964;Laerm;31671;48.092;11.842;2023-04-24T11:21:13;30.84;27.90;46.77;;
45964;Laerm;31671;48.092;11.842;2023-04-24T11:23:39;30.60;27.79;50.45;;
45964;Laerm;31671;48.092;11.842;2023-04-24T11:26:18;31.45;27.86;56.05;;
45964;Laerm;31671;48.092;11.842;2023-04-24T11:28:45;29.64;27.98;46.92;;
45964;Laerm;31671;48.092;11.842;2023-04-24T11:33:55;29.76;28.17;35.46;;
45964;Laerm;31671;48.092;11.842;2023-04-24T11:36:21;29.73;28.34;34.44;;
45964;Laerm;31671;48.092;11.842;2023-04-24T11:38:47;32.89;28.66;59.25;;
45964;Laerm;31671;48.092;11.842;2023-04-24T11:41:13;30.29;28.98;32.83;;
45964;Laerm;31671;48.092;11.842;2023-04-24T11:43:38;30.42;28.90;42.60;;
45964;Laerm;31671;48.092;11.842;2023-04-24T11:46:05;30.63;28.98;33.61;;
45964;Laerm;31671;48.092;11.842;2023-04-24T11:48:34;31.12;29.37;51.39;;
45964;Laerm;31671;48.092;11.842;2023-04-24T11:51:01;32.64;29.40;60.78;;
45964;Laerm;31671;48.092;11.842;2023-04-24T11:53:27;31.09;29.34;49.43;;
45964;Laerm;31671;48.092;11.842;2023-04-24T11:55:52;30.84;29.17;43.62;;
45964;Laerm;31671;48.092;11.842;2023-04-24T11:58:20;33.60;29.12;59.14;;
45964;Laerm;31671;48.092;11.842;2023-04-24T12:00:46;34.65;29.41;55.38;;
45964;Laerm;31671;48.092;11.842;2023-04-24T12:03:21;35.56;29.18;64.56;;
45964;Laerm;31671;48.092;11.842;2023-04-24T12:05:46;35.05;29.18;63.55;;
45964;Laerm;31671;48.092;11.842;2023-04-24T12:08:12;34.72;29.45;64.37;;
45964;Laerm;31671;48.092;11.842;2023-04-24T12:10:52;30.74;29.46;35.85;;
45964;Laerm;31671;48.092;11.842;2023-04-24T12:13:17;30.79;29.26;36.40;;
45964;Laerm;31671;48.092;11.842;2023-04-24T12:15:43;30.83;29.24;42.75;;
45964;Laerm;31671;48.092;11.842;2023-04-24T12:18:11;31.12;29.30;51.04;;
45964;Laerm;31671;48.092;11.842;2023-04-24T12:20:37;30.87;29.10;45.43;;
45964;Laerm;31671;48.092;11.842;2023-04-24T12:23:02;31.54;29.14;54.76;;
45964;Laerm;31671;48.092;11.842;2023-04-24T12:25:29;36.11;28.97;62.54;;
45964;Laerm;31671;48.092;11.842;2023-04-24T12:28:08;31.73;29.09;51.03;;
45964;Laerm;31671;48.092;11.842;2023-04-24T12:30:35;33.70;28.59;58.21;;
45964;Laerm;31671;48.092;11.842;2023-04-24T12:33:01;32.73;28.48;56.26;;
45964;Laerm;31671;48.092;11.842;2023-04-24T12:35:28;29.86;28.37;35.55;;
45964;Laerm;31671;48.092;11.842;2023-04-24T12:37:54;30.83;28.33;46.79;;
45964;Laerm;31671;48.092;11.842;2023-04-24T12:40:21;31.47;28.45;53.19;;
45964;Laerm;31671;48.092;11.842;2023-04-24T12:42:48;30.61;28.59;46.81;;
45964;Laerm;31671;48.092;11.842;2023-04-24T12:45:14;31.53;28.64;51.01;;
45964;Laerm;31671;48.092;11.842;2023-04-24T12:47:41;30.78;28.75;49.77;;
45964;Laerm;31671;48.092;11.842;2023-04-24T12:50:07;34.57;28.63;56.01;;
45964;Laerm;31671;48.092;11.842;2023-04-24T12:52:33;30.57;28.82;44.74;;
45964;Laerm;31671;48.092;11.842;2023-04-24T12:54:59;30.80;28.77;44.83;;
45964;Laerm;31671;48.092;11.842;2023-04-24T12:57:25;31.16;28.63;47.95;;
45964;Laerm;31671;48.092;11.842;2023-04-24T12:59:55;30.16;28.70;36.97;;
45964;Laerm;31671;48.092;11.842;2023-04-24T13:02:21;30.58;28.63;48.20;;
45964;Laerm;31671;48.092;11.842;2023-04-24T13:04:47;38.11;28.71;62.71;;
45964;Laerm;31671;48.092;11.842;2023-04-24T13:07:13;35.61;28.60;63.98;;
45964;Laerm;31671;48.092;11.842;2023-04-24T13:09:38;44.22;28.43;72.76;;
45964;Laerm;31671;48.092;11.842;2023-04-24T13:12:04;35.68;28.10;58.89;;
45964;Laerm;31671;48.092;11.842;2023-04-24T13:14:30;39.00;28.32;64.85;;
45964;Laerm;31671;48.092;11.842;2023-04-24T13:16:55;40.56;28.29;71.53;;
45964;Laerm;31671;48.092;11.842;2023-04-24T13:19:21;32.96;28.02;54.60;;
45964;Laerm;31671;48.092;11.842;2023-04-24T13:21:47;35.29;28.56;63.99;;
45964;Laerm;31671;48.092;11.842;2023-04-24T13:24:13;31.09;28.57;52.51;;
45964;Laerm;31671;48.092;11.842;2023-04-24T13:26:38;38.63;28.78;69.84;;
45964;Laerm;31671;48.092;11.842;2023-04-24T13:29:04;40.30;28.58;67.98;;
45964;Laerm;31671;48.092;11.842;2023-04-24T13:31:30;41.07;28.69;70.67;;
45964;Laerm;31671;48.092;11.842;2023-04-24T13:33:55;31.79;28.78;55.75;;
45964;Laerm;31671;48.092;11.842;2023-04-24T13:36:21;37.72;28.94;64.80;;
45964;Laerm;31671;48.092;11.842;2023-04-24T13:38:47;31.39;28.69;54.25;;
45964;Laerm;31671;48.092;11.842;2023-04-24T13:41:12;30.68;28.79;46.70;;
45964;Laerm;31671;48.092;11.842;2023-04-24T13:43:38;34.13;28.94;59.75;;